X  Close Metar Aviation Weather Data        LPMA Madeira Airport
Temperature
15°C Temperature
13°C Dewpoint
88% Humidity



Wind
21 MPH
33 KM/H
9 M/S
18 KTS



20°
NNE
Current Conditions

Windy with Rain Showers Likely Windy , Rain Showers Likely
Pressure 1028 (hPa) - 30.35 (inHg)
Visibility 4 (mile) - 7 (km)
Airport
Airport-code LPMA

Location: Madeira Airport
Distance: 51 (mi)

Metar:
METAR LPMA 290900Z 02018G29KT 340V040 7000 -SHRA BKN014 15/13 Q1028

Time: 29-02-2024 09:00 WET